Springdale, Ohio
Current Conditions -  °F | °C
As of 8:53 AM on Friday 31 Oct 2014 (Local Time) from KHAO Reporting Station
Haze Haze  
Wind Chill: 41°   Ceiling: 7000
Heat Index: 41°   Visibility: 4mi
Dew Point: 40°   Wind: 0mph
Humidity: 96%   Direction: NA
Pressure: 29.98"   Gusts: NA
Location:  39.286°N, 84.4668°W
Report Text: KHAO 311253Z AUTO 00000KT 4SM BR BKN070 OVC110 05/04 A2998 RMK AO2 SLP157 T00500044
Loading
Personal Weather Stations






























Interactive Weather Map
Tropical Storm Tracking
New forecast layout! Learn more

10-Day Weather Forecast

Advertisements
Track Severe Weather on mobile